PWSweather.com
Personal Weather Stations
Station Observations
PENICUIKWS
PenicuikGB

PenicuikGB

Lat: 55.830932, Lon: -3.224533000000065

Elevation: 166

Station Type: Fine Offset

http://weather.penicuik.org

High Low Average
Temperature 50.7°F10.4°C 39.2°F4.0°C 45.1°F7.3°C
Dew Point 46.3°F7.9°C 36.5°F2.5°C 41.2°F5.1°C
Winds 7.4 mph 11.9 kmh 0.9 mph 1.4 kmh 4.0 mph WSW6.4 kmh WSW
Wind Gusts 14.5 mph23.3 kmh 2.2 mph3.5 kmh 7.0 mph11.3 kmh
Humidity 91% 80% 86%
Pressure 29.80 in1009.1 mb 29.47 in998.0 mb -
Precipitation 0.44 in11.2 mm - -
Hour Temp Dew Point Humidity Winds Wind Gusts Pressure Precip Precip Rate Daily Precip Total
12:15 AM 42.3°F5.7°C 39.0°F3.9°C 88% 2.6 mph NNE4.2 kmh NNE 4.5 mph7.2 kmh 29.80 in1009.1 mb 0.00 in0.0 mm 0.00 in0.0 mm 0.00 in0.0 mm
12:30 AM 42.3°F5.7°C 39.0°F3.9°C 88% 3.3 mph NW5.3 kmh NW 6.9 mph11.1 kmh 29.80 in1009.1 mb 0.00 in0.0 mm 0.00 in0.0 mm 0.00 in0.0 mm
12:45 AM 42.4°F5.8°C 39.1°F3.9°C 88% 3.4 mph NW5.5 kmh NW 7.6 mph12.2 kmh 29.79 in1008.8 mb 0.00 in0.0 mm 0.00 in0.0 mm 0.00 in0.0 mm
01:00 AM 42.4°F5.8°C 39.1°F3.9°C 88% 2.8 mph SSW4.5 kmh SSW 6.0 mph9.7 kmh 29.77 in1008.1 mb 0.00 in0.0 mm 0.00 in0.0 mm 0.00 in0.0 mm
01:15 AM 42.8°F6.0°C 39.2°F4.0°C 87% 2.6 mph SE4.2 kmh SE 9.8 mph15.8 kmh 29.76 in1007.8 mb 0.00 in0.0 mm 0.00 in0.0 mm 0.00 in0.0 mm
01:30 AM 43.3°F6.3°C 39.7°F4.3°C 87% 5.1 mph WNW8.2 kmh WNW 9.8 mph15.8 kmh 29.76 in1007.8 mb 0.00 in0.0 mm 0.00 in0.0 mm 0.00 in0.0 mm
01:45 AM 43.5°F6.4°C 39.6°F4.2°C 86% 4.4 mph NNW7.1 kmh NNW 6.9 mph11.1 kmh 29.75 in1007.5 mb 0.00 in0.0 mm 0.00 in0.0 mm 0.00 in0.0 mm
02:00 AM 43.9°F6.6°C 39.7°F4.3°C 85% 6.1 mph NE9.8 kmh NE 8.3 mph13.4 kmh 29.74 in1007.1 mb 0.00 in0.0 mm 0.00 in0.0 mm 0.00 in0.0 mm
02:15 AM 44.2°F6.8°C 39.7°F4.3°C 84% 3.9 mph W6.3 kmh W 7.6 mph12.2 kmh 29.73 in1006.8 mb 0.00 in0.0 mm 0.00 in0.0 mm 0.00 in0.0 mm
02:30 AM 44.2°F6.8°C 39.7°F4.3°C 84% 3.6 mph W5.8 kmh W 6.9 mph11.1 kmh 29.73 in1006.8 mb 0.00 in0.0 mm 0.00 in0.0 mm 0.00 in0.0 mm
02:45 AM 43.5°F6.4°C 38.7°F3.7°C 83% 3.0 mph E4.8 kmh E 5.4 mph8.7 kmh 29.71 in1006.1 mb 0.00 in0.0 mm 0.00 in0.0 mm 0.00 in0.0 mm
03:00 AM 43.5°F6.4°C 39.0°F3.9°C 84% 3.8 mph W6.1 kmh W 6.0 mph9.7 kmh 29.70 in1005.8 mb 0.00 in0.0 mm 0.00 in0.0 mm 0.00 in0.0 mm
03:15 AM 44.2°F6.8°C 40.0°F4.4°C 85% 4.6 mph WSW7.4 kmh WSW 7.6 mph12.2 kmh 29.70 in1005.8 mb 0.00 in0.0 mm 0.00 in0.0 mm 0.00 in0.0 mm
03:30 AM 44.6°F7.0°C 40.1°F4.5°C 84% 3.4 mph S5.5 kmh S 6.0 mph9.7 kmh 29.68 in1005.1 mb 0.00 in0.0 mm 0.00 in0.0 mm 0.00 in0.0 mm
04:00 AM 44.8°F7.1°C 40.6°F4.8°C 85% 3.0 mph NW4.8 kmh NW 5.4 mph8.7 kmh 29.67 in1004.7 mb 0.00 in0.0 mm 0.00 in0.0 mm 0.00 in0.0 mm
04:15 AM 45.3°F7.4°C 41.1°F5.1°C 85% 4.2 mph S6.8 kmh S 10.7 mph17.2 kmh 29.66 in1004.4 mb 0.00 in0.0 mm 0.00 in0.0 mm 0.00 in0.0 mm
04:30 AM 45.5°F7.5°C 40.6°F4.8°C 83% 2.1 mph NW3.4 kmh NW 3.8 mph6.1 kmh 29.66 in1004.4 mb 0.00 in0.0 mm 0.00 in0.0 mm 0.00 in0.0 mm
04:45 AM 45.3°F7.4°C 40.5°F4.7°C 83% 2.4 mph NNE3.9 kmh NNE 3.8 mph6.1 kmh 29.65 in1004.1 mb 0.00 in0.0 mm 0.00 in0.0 mm 0.00 in0.0 mm
05:00 AM 45.5°F7.5°C 41.0°F5.0°C 84% 3.7 mph NW6.0 kmh NW 5.4 mph8.7 kmh 29.64 in1003.7 mb 0.00 in0.0 mm 0.00 in0.0 mm 0.00 in0.0 mm
05:15 AM 45.7°F7.6°C 40.8°F4.9°C 83% 2.3 mph NNW3.7 kmh NNW 3.8 mph6.1 kmh 29.63 in1003.4 mb 0.00 in0.0 mm 0.00 in0.0 mm 0.00 in0.0 mm
05:30 AM 46.2°F7.9°C 41.3°F5.2°C 83% 2.7 mph W4.3 kmh W 4.5 mph7.2 kmh 29.62 in1003.0 mb 0.00 in0.0 mm 0.00 in0.0 mm 0.00 in0.0 mm
05:45 AM 46.6°F8.1°C 41.7°F5.4°C 83% 2.9 mph N4.7 kmh N 4.5 mph7.2 kmh 29.61 in1002.7 mb 0.00 in0.0 mm 0.00 in0.0 mm 0.00 in0.0 mm
06:00 AM 46.9°F8.3°C 41.7°F5.4°C 82% 3.1 mph W5.0 kmh W 3.8 mph6.1 kmh 29.62 in1003.0 mb 0.00 in0.0 mm 0.00 in0.0 mm 0.00 in0.0 mm
06:15 AM 46.9°F8.3°C 41.7°F5.4°C 82% 3.3 mph SSE5.3 kmh SSE 5.4 mph8.7 kmh 29.60 in1002.4 mb 0.00 in0.0 mm 0.00 in0.0 mm 0.00 in0.0 mm
06:30 AM 46.8°F8.2°C 41.6°F5.3°C 82% 4.4 mph S7.1 kmh S 6.0 mph9.7 kmh 29.59 in1002.0 mb 0.00 in0.0 mm 0.00 in0.0 mm 0.00 in0.0 mm
06:45 AM 46.4°F8.0°C 41.5°F5.3°C 83% 4.3 mph N6.9 kmh N 8.3 mph13.4 kmh 29.57 in1001.4 mb 0.00 in0.0 mm 0.00 in0.0 mm 0.00 in0.0 mm
07:00 AM 46.6°F8.1°C 42.0°F5.6°C 84% 3.0 mph NNW4.8 kmh NNW 4.5 mph7.2 kmh 29.57 in1001.4 mb 0.00 in0.0 mm 0.00 in0.0 mm 0.00 in0.0 mm
07:15 AM 46.4°F8.0°C 41.8°F5.4°C 84% 2.6 mph NNW4.2 kmh NNW 4.5 mph7.2 kmh 29.57 in1001.4 mb 0.00 in0.0 mm 0.00 in0.0 mm 0.00 in0.0 mm
07:30 AM 46.6°F8.1°C 42.0°F5.6°C 84% 3.6 mph SE5.8 kmh SE 6.0 mph9.7 kmh 29.55 in1000.7 mb 0.01 in0.3 mm 0.04 in1.0 mm 0.01 in0.3 mm
07:45 AM 46.6°F8.1°C 42.0°F5.6°C 84% 2.5 mph NW4.0 kmh NW 4.5 mph7.2 kmh 29.54 in1000.3 mb 0.01 in0.3 mm 0.00 in0.0 mm 0.01 in0.3 mm
08:00 AM 46.9°F8.3°C 42.4°F5.8°C 84% 4.1 mph SW6.6 kmh SW 6.0 mph9.7 kmh 29.54 in1000.3 mb 0.01 in0.3 mm 0.00 in0.0 mm 0.01 in0.3 mm
08:15 AM 47.5°F8.6°C 42.9°F6.1°C 84% 5.7 mph NW9.2 kmh NW 9.8 mph15.8 kmh 29.54 in1000.3 mb 0.01 in0.3 mm 0.00 in0.0 mm 0.01 in0.3 mm
08:45 AM 46.9°F8.3°C 42.4°F5.8°C 84% 3.4 mph N5.5 kmh N 6.0 mph9.7 kmh 29.54 in1000.3 mb 0.00 in0.0 mm 0.00 in0.0 mm 0.01 in0.3 mm
09:00 AM 46.8°F8.2°C 42.8°F6.0°C 86% 4.4 mph NNW7.1 kmh NNW 9.2 mph14.8 kmh 29.53 in1000.0 mb 0.02 in0.5 mm 0.03 in0.8 mm 0.04 in1.0 mm
09:15 AM 46.9°F8.3°C 43.6°F6.4°C 88% 4.3 mph NW6.9 kmh NW 6.0 mph9.7 kmh 29.52 in999.7 mb 0.04 in1.0 mm 0.08 in2.0 mm 0.05 in1.3 mm
09:45 AM 47.3°F8.5°C 44.5°F6.9°C 90% 3.7 mph W6.0 kmh W 6.0 mph9.7 kmh 29.50 in999.0 mb 0.06 in1.5 mm 0.04 in1.0 mm 0.07 in1.8 mm
10:15 AM 48.6°F9.2°C 45.8°F7.7°C 90% 5.2 mph SSW8.4 kmh SSW 8.3 mph13.4 kmh 29.50 in999.0 mb 0.04 in1.0 mm 0.00 in0.0 mm 0.08 in2.0 mm
10:30 AM 49.1°F9.5°C 46.3°F7.9°C 90% 6.0 mph NNW9.7 kmh NNW 11.4 mph18.3 kmh 29.49 in998.6 mb 0.01 in0.3 mm 0.00 in0.0 mm 0.08 in2.0 mm
11:00 AM 49.8°F9.9°C 46.1°F7.8°C 87% 5.6 mph NE9.0 kmh NE 7.6 mph12.2 kmh 29.48 in998.3 mb 0.00 in0.0 mm 0.00 in0.0 mm 0.08 in2.0 mm
11:30 AM 50.0°F10.0°C 45.7°F7.6°C 85% 7.4 mph SW11.9 kmh SW 13.6 mph21.9 kmh 29.48 in998.3 mb 0.00 in0.0 mm 0.00 in0.0 mm 0.08 in2.0 mm
11:45 AM 50.2°F10.1°C 46.2°F7.9°C 86% 4.3 mph NNW6.9 kmh NNW 6.9 mph11.1 kmh 29.48 in998.3 mb 0.00 in0.0 mm 0.00 in0.0 mm 0.08 in2.0 mm
12:00 PM 50.4°F10.2°C 46.0°F7.8°C 85% 6.1 mph N9.8 kmh N 12.1 mph19.5 kmh 29.48 in998.3 mb 0.00 in0.0 mm 0.00 in0.0 mm 0.08 in2.0 mm
12:30 PM 50.4°F10.2°C 46.3°F7.9°C 86% 4.6 mph NNE7.4 kmh NNE 8.3 mph13.4 kmh 29.49 in998.6 mb 0.02 in0.5 mm 0.04 in1.0 mm 0.11 in2.8 mm
12:45 PM 50.4°F10.2°C 46.3°F7.9°C 86% 5.4 mph N8.7 kmh N 14.5 mph23.3 kmh 29.47 in998.0 mb 0.02 in0.5 mm 0.00 in0.0 mm 0.11 in2.8 mm
01:00 PM 50.5°F10.3°C 46.2°F7.9°C 85% 4.1 mph W6.6 kmh W 5.4 mph8.7 kmh 29.48 in998.3 mb 0.02 in0.5 mm 0.00 in0.0 mm 0.11 in2.8 mm
01:15 PM 50.7°F10.4°C 46.1°F7.8°C 84% 5.0 mph SW8.0 kmh SW 8.3 mph13.4 kmh 29.48 in998.3 mb 0.00 in0.0 mm 0.00 in0.0 mm 0.11 in2.8 mm
01:30 PM 50.7°F10.4°C 45.4°F7.4°C 82% 5.3 mph N8.5 kmh N 11.4 mph18.3 kmh 29.48 in998.3 mb 0.00 in0.0 mm 0.00 in0.0 mm 0.11 in2.8 mm
01:45 PM 50.5°F10.3°C 44.9°F7.2°C 81% 5.1 mph W8.2 kmh W 10.7 mph17.2 kmh 29.48 in998.3 mb 0.00 in0.0 mm 0.00 in0.0 mm 0.11 in2.8 mm
02:00 PM 50.7°F10.4°C 45.1°F7.3°C 81% 3.1 mph NW5.0 kmh NW 5.4 mph8.7 kmh 29.48 in998.3 mb 0.00 in0.0 mm 0.00 in0.0 mm 0.11 in2.8 mm
02:15 PM 50.5°F10.3°C 44.9°F7.2°C 81% 3.9 mph WSW6.3 kmh WSW 7.6 mph12.2 kmh 29.48 in998.3 mb 0.00 in0.0 mm 0.00 in0.0 mm 0.11 in2.8 mm
02:30 PM 50.7°F10.4°C 44.8°F7.1°C 80% 3.1 mph W5.0 kmh W 5.4 mph8.7 kmh 29.48 in998.3 mb 0.00 in0.0 mm 0.00 in0.0 mm 0.11 in2.8 mm
02:45 PM 50.5°F10.3°C 44.6°F7.0°C 80% 5.7 mph WNW9.2 kmh WNW 11.4 mph18.3 kmh 29.48 in998.3 mb 0.00 in0.0 mm 0.00 in0.0 mm 0.11 in2.8 mm
03:00 PM 50.4°F10.2°C 44.4°F6.9°C 80% 3.1 mph WSW5.0 kmh WSW 6.9 mph11.1 kmh 29.48 in998.3 mb 0.00 in0.0 mm 0.00 in0.0 mm 0.11 in2.8 mm
03:15 PM 49.3°F9.6°C 44.0°F6.7°C 82% 3.6 mph SE5.8 kmh SE 6.9 mph11.1 kmh 29.49 in998.6 mb 0.02 in0.5 mm 0.08 in2.0 mm 0.13 in3.3 mm
03:30 PM 48.7°F9.3°C 44.1°F6.7°C 84% 3.8 mph ESE6.1 kmh ESE 8.3 mph13.4 kmh 29.48 in998.3 mb 0.04 in1.0 mm 0.08 in2.0 mm 0.14 in3.6 mm
03:45 PM 48.2°F9.0°C 43.9°F6.6°C 85% 3.8 mph NW6.1 kmh NW 6.0 mph9.7 kmh 29.49 in998.6 mb 0.05 in1.3 mm 0.04 in1.0 mm 0.15 in3.8 mm
04:15 PM 45.7°F7.6°C 41.1°F5.1°C 84% 3.5 mph WSW5.6 kmh WSW 6.0 mph9.7 kmh 29.48 in998.3 mb 0.06 in1.5 mm 0.02 in0.5 mm 0.19 in4.8 mm
04:30 PM 45.9°F7.7°C 41.3°F5.2°C 84% 2.7 mph SSW4.3 kmh SSW 3.8 mph6.1 kmh 29.50 in999.0 mb 0.06 in1.5 mm 0.00 in0.0 mm 0.20 in5.1 mm
04:45 PM 43.7°F6.5°C 39.8°F4.3°C 86% 4.2 mph S6.8 kmh S 8.3 mph13.4 kmh 29.50 in999.0 mb 0.17 in4.3 mm 0.44 in11.2 mm 0.33 in8.4 mm
05:00 PM 43.3°F6.3°C 39.7°F4.3°C 87% 2.8 mph WSW4.5 kmh WSW 5.4 mph8.7 kmh 29.50 in999.0 mb 0.14 in3.6 mm 0.00 in0.0 mm 0.33 in8.4 mm
05:15 PM 43.7°F6.5°C 40.7°F4.8°C 89% 2.7 mph WSW4.3 kmh WSW 6.9 mph11.1 kmh 29.51 in999.3 mb 0.18 in4.6 mm 0.16 in4.1 mm 0.37 in9.4 mm
05:30 PM 44.1°F6.7°C 41.3°F5.2°C 90% 2.7 mph WSW4.3 kmh WSW 3.8 mph6.1 kmh 29.51 in999.3 mb 0.17 in4.3 mm 0.00 in0.0 mm 0.38 in9.7 mm
05:45 PM 42.4°F5.8°C 39.7°F4.3°C 90% 4.7 mph E7.6 kmh E 9.2 mph14.8 kmh 29.52 in999.7 mb 0.09 in2.3 mm 0.00 in0.0 mm 0.43 in10.9 mm
06:00 PM 41.9°F5.5°C 38.9°F3.8°C 89% 2.6 mph SW4.2 kmh SW 5.4 mph8.7 kmh 29.52 in999.7 mb 0.08 in2.0 mm 0.00 in0.0 mm 0.43 in10.9 mm
06:15 PM 41.2°F5.1°C 38.2°F3.4°C 89% 1.8 mph N2.9 kmh N 3.1 mph5.0 kmh 29.52 in999.7 mb 0.06 in1.5 mm 0.00 in0.0 mm 0.43 in10.9 mm
06:30 PM 41.0°F5.0°C 38.3°F3.5°C 90% 2.5 mph S4.0 kmh S 5.4 mph8.7 kmh 29.54 in1000.3 mb 0.05 in1.3 mm 0.00 in0.0 mm 0.43 in10.9 mm
06:45 PM 40.8°F4.9°C 38.4°F3.6°C 91% 2.9 mph ENE4.7 kmh ENE 6.0 mph9.7 kmh 29.55 in1000.7 mb 0.00 in0.0 mm 0.00 in0.0 mm 0.43 in10.9 mm
07:00 PM 41.2°F5.1°C 38.5°F3.6°C 90% 4.4 mph NW7.1 kmh NW 7.6 mph12.2 kmh 29.55 in1000.7 mb 0.00 in0.0 mm 0.00 in0.0 mm 0.43 in10.9 mm
07:15 PM 41.5°F5.3°C 38.8°F3.8°C 90% 4.7 mph WSW7.6 kmh WSW 6.9 mph11.1 kmh 29.55 in1000.7 mb 0.00 in0.0 mm 0.00 in0.0 mm 0.43 in10.9 mm
07:45 PM 41.0°F5.0°C 38.3°F3.5°C 90% 3.6 mph NE5.8 kmh NE 7.6 mph12.2 kmh 29.56 in1001.0 mb 0.00 in0.0 mm 0.00 in0.0 mm 0.43 in10.9 mm
08:00 PM 40.1°F4.5°C 37.4°F3.0°C 90% 2.8 mph WSW4.5 kmh WSW 3.8 mph6.1 kmh 29.56 in1001.0 mb 0.00 in0.0 mm 0.00 in0.0 mm 0.43 in10.9 mm
08:15 PM 39.4°F4.1°C 36.7°F2.6°C 90% 3.2 mph W5.1 kmh W 6.0 mph9.7 kmh 29.56 in1001.0 mb 0.00 in0.0 mm 0.00 in0.0 mm 0.43 in10.9 mm
08:30 PM 40.1°F4.5°C 37.4°F3.0°C 90% 2.9 mph WSW4.7 kmh WSW 3.8 mph6.1 kmh 29.56 in1001.0 mb 0.00 in0.0 mm 0.00 in0.0 mm 0.43 in10.9 mm
08:45 PM 39.2°F4.0°C 36.5°F2.5°C 90% 4.2 mph W6.8 kmh W 11.4 mph18.3 kmh 29.55 in1000.7 mb 0.00 in0.0 mm 0.00 in0.0 mm 0.43 in10.9 mm
09:00 PM 39.2°F4.0°C 36.5°F2.5°C 90% 2.7 mph W4.3 kmh W 5.4 mph8.7 kmh 29.56 in1001.0 mb 0.00 in0.0 mm 0.00 in0.0 mm 0.43 in10.9 mm
09:15 PM 39.2°F4.0°C 36.5°F2.5°C 90% 2.7 mph N4.3 kmh N 3.8 mph6.1 kmh 29.56 in1001.0 mb 0.00 in0.0 mm 0.00 in0.0 mm 0.43 in10.9 mm
09:30 PM 40.5°F4.7°C 37.8°F3.2°C 90% 2.7 mph NW4.3 kmh NW 6.0 mph9.7 kmh 29.56 in1001.0 mb 0.00 in0.0 mm 0.00 in0.0 mm 0.43 in10.9 mm
09:45 PM 41.0°F5.0°C 38.0°F3.3°C 89% 2.7 mph W4.3 kmh W 5.4 mph8.7 kmh 29.56 in1001.0 mb 0.00 in0.0 mm 0.00 in0.0 mm 0.43 in10.9 mm
10:00 PM 40.1°F4.5°C 37.1°F2.8°C 89% 0.9 mph NW1.4 kmh NW 2.2 mph3.5 kmh 29.55 in1000.7 mb 0.00 in0.0 mm 0.00 in0.0 mm 0.43 in10.9 mm
10:30 PM 40.5°F4.7°C 37.5°F3.1°C 89% 2.8 mph SSE4.5 kmh SSE 6.0 mph9.7 kmh 29.55 in1000.7 mb 0.00 in0.0 mm 0.00 in0.0 mm 0.43 in10.9 mm
10:45 PM 41.4°F5.2°C 38.4°F3.6°C 89% 1.9 mph N3.1 kmh N 3.8 mph6.1 kmh 29.54 in1000.3 mb 0.00 in0.0 mm 0.00 in0.0 mm 0.43 in10.9 mm
11:00 PM 41.5°F5.3°C 38.3°F3.5°C 88% 2.3 mph N3.7 kmh N 3.8 mph6.1 kmh 29.53 in1000.0 mb 0.00 in0.0 mm 0.00 in0.0 mm 0.43 in10.9 mm
11:15 PM 42.3°F5.7°C 39.0°F3.9°C 88% 4.3 mph NW6.9 kmh NW 9.8 mph15.8 kmh 29.53 in1000.0 mb 0.00 in0.0 mm 0.00 in0.0 mm 0.43 in10.9 mm
11:30 PM 43.2°F6.2°C 39.3°F4.1°C 86% 3.2 mph N5.1 kmh N 6.9 mph11.1 kmh 29.52 in999.7 mb 0.00 in0.0 mm 0.00 in0.0 mm 0.43 in10.9 mm
11:45 PM 43.7°F6.5°C 39.8°F4.3°C 86% 3.7 mph N6.0 kmh N 6.9 mph11.1 kmh 29.52 in999.7 mb 0.01 in0.3 mm 0.04 in1.0 mm 0.44 in11.2 mm